Time;durP1;ratioP1;P1;durP2;ratioP2;P2;SDS_P1;SDS_P2;PMS_P1;PMS_P2;Temp;Humidity;BMP_temperature;BMP_pressure;BME280_temperature;BME280_humidity;BME280_pressure;Samples;Min_cycle;Max_cycle;Signal;HPM_P1;HPM_P2
2024/01/12 00:01:56;;;;;;;1999.90;999.90;;;;;;;-6.31;78.55;96123.22;5113583;28;20047;-66
2024/01/12 00:04:23;;;;;;;1999.90;999.90;;;;;;;-6.33;78.01;96132.53;5113470;28;20537;-66
2024/01/12 00:06:50;;;;;;;1999.90;999.90;;;;;;;-6.32;77.79;96131.72;5113301;28;20132;-66
2024/01/12 00:09:17;;;;;;;1999.90;999.90;;;;;;;-6.32;77.46;96131.72;5113501;28;20146;-64
2024/01/12 00:11:44;;;;;;;1999.90;999.90;;;;;;;-6.35;77.80;96129.97;5117221;28;20052;-65
2024/01/12 00:14:14;;;;;;;1999.90;999.90;;;;;;;-6.43;78.79;96142.53;5117711;28;20048;-66
2024/01/12 00:16:44;;;;;;;1999.90;999.90;;;;;;;-6.55;78.94;96135.47;5117555;28;20055;-67
2024/01/12 00:19:11;;;;;;;1999.90;999.90;;;;;;;-6.65;78.98;96139.47;5099993;28;20048;-64
2024/01/12 00:21:38;;;;;;;1999.90;999.90;;;;;;;-6.69;79.18;96130.06;5117476;28;20063;-67
2024/01/12 00:24:05;;;;;;;1999.90;999.90;;;;;;;-6.69;79.32;96127.50;5117532;28;20043;-67
2024/01/12 00:26:32;;;;;;;1999.90;999.90;;;;;;;-6.74;80.63;96134.19;5117410;28;20043;-64
2024/01/12 00:28:59;;;;;;;1999.90;999.90;;;;;;;-6.80;80.82;96127.28;5117310;28;20051;-64
2024/01/12 00:31:28;;;;;;;1999.90;999.90;;;;;;;-6.74;80.64;96132.47;5117359;28;20040;-65
2024/01/12 00:33:55;;;;;;;1999.90;999.90;;;;;;;-6.66;80.04;96135.22;5117320;28;20455;-66
2024/01/12 00:36:22;;;;;;;1999.90;999.90;;;;;;;-6.62;79.82;96137.00;5117246;28;20044;-65
2024/01/12 00:38:49;;;;;;;1999.90;999.90;;;;;;;-6.55;79.43;96138.00;5117217;28;20048;-67
2024/01/12 00:41:16;;;;;;;1999.90;999.90;;;;;;;-6.50;79.14;96133.03;5117178;28;20488;-67
2024/01/12 00:43:43;;;;;;;1999.90;999.90;;;;;;;-6.52;78.48;96129.56;5117115;28;20423;-65
2024/01/12 00:46:10;;;;;;;1999.90;999.90;;;;;;;-6.50;78.80;96130.47;5117111;28;20066;-67
2024/01/12 00:48:38;;;;;;;1999.90;999.90;;;;;;;-6.47;77.70;96136.47;5116921;28;20443;-66
2024/01/12 00:51:05;;;;;;;1999.90;999.90;;;;;;;-6.57;77.05;96128.63;5116863;28;20504;-66
2024/01/12 00:53:32;;;;;;;1999.90;999.90;;;;;;;-6.68;77.29;96123.28;5117168;28;20481;-65
2024/01/12 00:55:59;;;;;;;1999.90;999.90;;;;;;;-6.72;77.38;96129.97;5116814;28;20477;-64
2024/01/12 00:58:26;;;;;;;1999.90;999.90;;;;;;;-6.82;77.62;96123.81;5116914;28;20126;-66
2024/01/12 01:00:53;;;;;;;1999.90;999.90;;;;;;;-6.80;78.06;96113.69;5116842;28;20083;-65
2024/01/12 01:03:20;;;;;;;1999.90;999.90;;;;;;;-6.88;78.01;96116.91;5116587;28;20047;-66
2024/01/12 01:05:49;;;;;;;1999.90;999.90;;;;;;;-6.94;78.56;96111.69;5116627;28;20503;-66
2024/01/12 01:08:16;;;;;;;1999.90;999.90;;;;;;;-6.93;78.95;96120.19;5116463;28;20047;-64
2024/01/12 01:10:43;;;;;;;1999.90;999.90;;;;;;;-6.88;79.39;96114.38;5116454;28;20143;-66
2024/01/12 01:13:10;;;;;;;1999.90;999.90;;;;;;;-6.85;79.18;96119.53;5116545;28;20424;-64
2024/01/12 01:15:37;;;;;;;1999.90;999.90;;;;;;;-6.87;78.98;96115.22;5116428;28;20396;-63
2024/01/12 01:18:05;;;;;;;1999.90;999.90;;;;;;;-6.85;78.94;96113.56;5116377;28;20135;-64
2024/01/12 01:20:33;;;;;;;1999.90;999.90;;;;;;;-6.82;78.53;96116.19;5116295;28;20138;-67
2024/01/12 01:23:01;;;;;;;1999.90;999.90;;;;;;;-6.86;78.50;96112.69;5115204;28;20040;-67
2024/01/12 01:25:29;;;;;;;1999.90;999.90;;;;;;;-6.94;79.17;96113.34;5116383;28;20477;-64
2024/01/12 01:27:56;;;;;;;1999.90;999.90;;;;;;;-6.98;79.42;96112.44;5116105;28;20055;-63
2024/01/12 01:30:23;;;;;;;1999.90;999.90;;;;;;;-6.98;79.45;96113.28;5116020;28;20055;-67
2024/01/12 01:32:50;;;;;;;1999.90;999.90;;;;;;;-6.93;79.13;96100.66;5116194;28;20043;-64
2024/01/12 01:35:17;;;;;;;1999.90;999.90;;;;;;;-6.92;79.21;96099.00;5116043;28;20079;-63
2024/01/12 01:37:44;;;;;;;1999.90;999.90;;;;;;;-6.91;79.06;96101.56;5116065;28;20040;-64
2024/01/12 01:40:13;;;;;;;1999.90;999.90;;;;;;;-6.95;78.57;96087.06;5115930;28;20044;-63
2024/01/12 01:42:40;;;;;;;1999.90;999.90;;;;;;;-7.04;78.28;96099.56;5116015;28;20090;-66
2024/01/12 01:45:08;;;;;;;1999.90;999.90;;;;;;;-7.10;78.00;96092.66;5115918;28;20399;-66
2024/01/12 01:47:35;;;;;;;1999.90;999.90;;;;;;;-7.19;78.31;96093.28;5115709;28;20407;-67
2024/01/12 01:50:02;;;;;;;1999.90;999.90;;;;;;;-7.20;78.71;96090.72;5115788;28;20054;-66
2024/01/12 01:52:29;;;;;;;1999.90;999.90;;;;;;;-7.19;78.46;96084.78;5115587;28;20066;-67
2024/01/12 01:54:58;;;;;;;1999.90;999.90;;;;;;;-7.21;78.24;96079.66;5115726;28;20116;-66
2024/01/12 01:57:28;;;;;;;1999.90;999.90;;;;;;;-7.19;78.08;96084.78;5115676;28;20130;-64
2024/01/12 01:59:56;;;;;;;1999.90;999.90;;;;;;;-7.23;78.20;96064.38;5115577;28;20282;-67
2024/01/12 02:02:23;;;;;;;1999.90;999.90;;;;;;;-7.30;78.19;96059.97;5115600;28;20092;-65
2024/01/12 02:04:53;;;;;;;1999.90;999.90;;;;;;;-7.33;78.50;96054.81;5115689;28;20116;-66
2024/01/12 02:07:20;;;;;;;1999.90;999.90;;;;;;;-7.31;78.42;96048.09;5115314;28;20443;-65
2024/01/12 02:09:47;;;;;;;1999.90;999.90;;;;;;;-7.28;78.53;96052.38;5115600;28;20134;-65
2024/01/12 02:12:14;;;;;;;1999.90;999.90;;;;;;;-7.20;79.42;96055.97;5115424;28;20052;-66
2024/01/12 02:14:43;;;;;;;1999.90;999.90;;;;;;;-7.19;78.93;96054.28;5115617;28;20131;-63
2024/01/12 02:17:10;;;;;;;1999.90;999.90;;;;;;;-7.15;79.27;96054.41;5115267;28;20071;-63
2024/01/12 02:19:37;;;;;;;1999.90;999.90;;;;;;;-7.08;79.01;96052.00;5115377;28;20039;-66
2024/01/12 02:22:05;;;;;;;1999.90;999.90;;;;;;;-7.10;78.52;96049.41;5096966;28;20489;-65
2024/01/12 02:24:32;;;;;;;1999.90;999.90;;;;;;;-7.21;78.39;96055.91;5115231;28;20044;-66
2024/01/12 02:26:59;;;;;;;1999.90;999.90;;;;;;;-7.19;78.26;96049.19;5115103;28;20131;-67
2024/01/12 02:29:26;;;;;;;1999.90;999.90;;;;;;;-7.29;78.00;96051.50;5115013;28;20050;-66
2024/01/12 02:31:55;;;;;;;1999.90;999.90;;;;;;;-7.31;78.51;96045.56;5115101;28;20127;-64
2024/01/12 02:34:22;;;;;;;1999.90;999.90;;;;;;;-7.37;78.24;96050.47;5114630;28;20143;-64
2024/01/12 02:36:49;;;;;;;1999.90;999.90;;;;;;;-7.48;78.40;96050.22;5114878;28;20048;-66
2024/01/12 02:39:17;;;;;;;1999.90;999.90;;;;;;;-7.49;78.63;96041.72;5114847;28;20105;-67
2024/01/12 02:41:44;;;;;;;1999.90;999.90;;;;;;;-7.53;78.77;96044.16;5115030;28;20425;-64
2024/01/12 02:44:11;;;;;;;1999.90;999.90;;;;;;;-7.52;78.96;96043.34;5114729;28;20062;-66
2024/01/12 02:46:38;;;;;;;1999.90;999.90;;;;;;;-7.50;78.63;96042.53;5114849;28;20046;-65
2024/01/12 02:49:05;;;;;;;1999.90;999.90;;;;;;;-7.50;79.15;96031.50;5114517;28;20043;-65
2024/01/12 02:51:32;;;;;;;1999.90;999.90;;;;;;;-7.59;79.53;96039.78;5114414;28;20048;-66
2024/01/12 02:54:00;;;;;;;1999.90;999.90;;;;;;;-7.52;80.44;96043.34;5114640;28;20079;-66
2024/01/12 02:56:28;;;;;;;1999.90;999.90;;;;;;;-7.41;80.40;96056.31;5114559;28;20050;-64
2024/01/12 02:58:55;;;;;;;1999.90;999.90;;;;;;;-7.40;81.15;96060.56;5114385;28;20050;-67
2024/01/12 03:01:22;;;;;;;1999.90;999.90;;;;;;;-7.37;81.48;96053.88;5114337;28;20054;-66
2024/01/12 03:03:49;;;;;;;1999.90;999.90;;;;;;;-7.28;81.67;96065.97;5114333;28;20370;-65
2024/01/12 03:06:16;;;;;;;1999.90;999.90;;;;;;;-7.25;81.10;96052.47;5114423;28;20439;-66
2024/01/12 03:08:43;;;;;;;1999.90;999.90;;;;;;;-7.24;80.73;96059.25;5114161;28;20134;-66
2024/01/12 03:11:11;;;;;;;1999.90;999.90;;;;;;;-7.19;80.64;96057.69;5114179;28;20054;-64
2024/01/12 03:13:39;;;;;;;1999.90;999.90;;;;;;;-7.16;80.33;96054.34;5114215;28;20094;-63
2024/01/12 03:16:06;;;;;;;1999.90;999.90;;;;;;;-7.18;79.98;96043.28;5114078;28;20047;-65
2024/01/12 03:18:33;;;;;;;1999.90;999.90;;;;;;;-7.24;80.63;96046.53;5114156;28;20044;-63
2024/01/12 03:21:00;;;;;;;1999.90;999.90;;;;;;;-7.21;80.78;96039.00;5113946;28;20097;-65
2024/01/12 03:23:27;;;;;;;1999.90;999.90;;;;;;;-7.19;80.37;96036.47;5113907;28;20134;-66
2024/01/12 03:25:54;;;;;;;1999.90;999.90;;;;;;;-7.30;80.30;96038.75;5114033;28;20126;-64
2024/01/12 03:28:21;;;;;;;1999.90;999.90;;;;;;;-7.26;81.20;96041.41;5113790;28;20514;-66
2024/01/12 03:30:49;;;;;;;1999.90;999.90;;;;;;;-7.21;81.63;96038.13;5114038;28;20075;-66
2024/01/12 03:33:16;;;;;;;1999.90;999.90;;;;;;;-7.19;82.19;96042.44;5113888;28;20073;-63
2024/01/12 03:35:43;;;;;;;1999.90;999.90;;;;;;;-7.17;82.22;96039.94;5113870;28;20073;-66
2024/01/12 03:38:12;;;;;;;1999.90;999.90;;;;;;;-7.06;82.47;96048.66;5113765;28;20075;-63
2024/01/12 03:40:39;;;;;;;1999.90;999.90;;;;;;;-6.98;82.09;96041.22;5113621;28;20455;-63
2024/01/12 03:43:06;;;;;;;1999.90;999.90;;;;;;;-7.08;81.88;96041.81;5095553;28;20129;-66
2024/01/12 03:45:33;;;;;;;1999.90;999.90;;;;;;;-7.01;81.11;96046.22;5113129;28;20058;-64
2024/01/12 03:48:02;;;;;;;1999.90;999.90;;;;;;;-6.99;81.38;96045.44;5113594;28;20044;-67
2024/01/12 03:50:29;;;;;;;1999.90;999.90;;;;;;;-7.11;81.30;96045.13;5113500;28;20058;-67
2024/01/12 03:52:56;;;;;;;1999.90;999.90;;;;;;;-7.09;81.47;96048.59;5113539;28;20050;-63
2024/01/12 03:55:23;;;;;;;1999.90;999.90;;;;;;;-7.08;81.15;96057.94;5113636;28;20126;-65
2024/01/12 03:57:50;;;;;;;1999.90;999.90;;;;;;;-7.05;81.55;96063.09;5113575;28;20488;-65
2024/01/12 04:00:17;;;;;;;1999.90;999.90;;;;;;;-6.96;81.54;96061.59;5113440;28;20489;-64
2024/01/12 04:02:44;;;;;;;1999.90;999.90;;;;;;;-6.89;81.69;96060.91;5113525;28;20131;-67
2024/01/12 04:05:13;;;;;;;1999.90;999.90;;;;;;;-6.85;82.88;96063.56;5113434;28;20043;-65
2024/01/12 04:07:40;;;;;;;1999.90;999.90;;;;;;;-6.78;82.56;96053.50;5113326;28;20405;-64
2024/01/12 04:10:07;;;;;;;1999.90;999.90;;;;;;;-6.78;81.63;96056.91;5113512;28;20067;-66
2024/01/12 04:12:34;;;;;;;1999.90;999.90;;;;;;;-6.88;81.55;96065.16;5113310;28;20044;-63
2024/01/12 04:15:01;;;;;;;1999.90;999.90;;;;;;;-6.86;81.55;96061.81;5113460;28;20079;-65
2024/01/12 04:17:28;;;;;;;1999.90;999.90;;;;;;;-6.82;81.36;96065.31;5113414;28;20048;-66
2024/01/12 04:19:55;;;;;;;1999.90;999.90;;;;;;;-6.80;81.18;96068.75;5113437;28;20051;-64
2024/01/12 04:22:23;;;;;;;1999.90;999.90;;;;;;;-6.80;81.16;96061.13;5113327;28;20055;-66
2024/01/12 04:24:50;;;;;;;1999.90;999.90;;;;;;;-6.81;80.78;96064.47;5113241;28;20047;-66
2024/01/12 04:27:17;;;;;;;1999.90;999.90;;;;;;;-6.88;80.44;96071.13;5113333;28;20089;-64
2024/01/12 04:29:44;;;;;;;1999.90;999.90;;;;;;;-6.96;80.75;96070.06;5113332;28;20051;-66
2024/01/12 04:32:12;;;;;;;1999.90;999.90;;;;;;;-6.97;80.81;96078.53;5113069;28;20055;-66
2024/01/12 04:34:39;;;;;;;1999.90;999.90;;;;;;;-6.94;81.21;96070.09;5113225;28;20138;-67
2024/01/12 04:37:07;;;;;;;1999.90;999.90;;;;;;;-6.94;80.99;96082.81;5113280;28;20075;-65
2024/01/12 04:39:35;;;;;;;1999.90;999.90;;;;;;;-6.97;81.93;96086.16;5113149;28;20134;-66
2024/01/12 04:42:02;;;;;;;1999.90;999.90;;;;;;;-6.88;82.08;96078.75;5113071;28;20083;-65
2024/01/12 04:44:29;;;;;;;1999.90;999.90;;;;;;;-6.86;82.02;96084.72;5113318;28;20131;-62
2024/01/12 04:46:56;;;;;;;1999.90;999.90;;;;;;;-6.85;81.79;96086.47;5113046;28;20043;-65
2024/01/12 04:49:24;;;;;;;1999.90;999.90;;;;;;;-6.80;81.87;96086.56;5112922;28;20159;-64
2024/01/12 04:51:51;;;;;;;1999.90;999.90;;;;;;;-6.76;81.49;96090.91;5112782;28;20108;-64
2024/01/12 04:54:18;;;;;;;1999.90;999.90;;;;;;;-6.74;81.02;96096.84;5113007;28;20050;-67
2024/01/12 04:56:46;;;;;;;1999.90;999.90;;;;;;;-6.78;81.07;96100.16;5114787;28;20065;-63
2024/01/12 04:59:13;;;;;;;1999.90;999.90;;;;;;;-6.79;81.26;96100.13;5116805;28;20126;-67
2024/01/12 05:01:41;;;;;;;1999.90;999.90;;;;;;;-6.78;81.12;96105.25;5098557;28;20079;-66
2024/01/12 05:04:08;;;;;;;1999.90;999.90;;;;;;;-6.88;80.41;96101.66;5116701;28;20108;-65
2024/01/12 05:06:35;;;;;;;1999.90;999.90;;;;;;;-6.93;80.24;96107.47;5116562;28;20048;-65
2024/01/12 05:09:02;;;;;;;1999.90;999.90;;;;;;;-6.90;80.27;96108.38;5116621;28;20104;-67
2024/01/12 05:11:29;;;;;;;1999.90;999.90;;;;;;;-6.89;79.84;96101.63;5116619;28;20131;-66
2024/01/12 05:13:57;;;;;;;1999.90;999.90;;;;;;;-6.95;80.30;96107.41;5116448;28;20489;-64
2024/01/12 05:16:24;;;;;;;1999.90;999.90;;;;;;;-6.93;80.36;96110.84;5116364;28;20062;-64
2024/01/12 05:18:52;;;;;;;1999.90;999.90;;;;;;;-6.87;80.11;96111.00;5116546;28;20044;-66
2024/01/12 05:21:19;;;;;;;1999.90;999.90;;;;;;;-6.89;79.57;96125.34;5116249;28;20447;-65
2024/01/12 05:23:46;;;;;;;1999.90;999.90;;;;;;;-6.95;79.16;96127.78;5116286;28;20507;-65
2024/01/12 05:26:13;;;;;;;1999.90;999.90;;;;;;;-7.07;78.99;96125.78;5116226;28;20488;-65
2024/01/12 05:28:41;;;;;;;1999.90;999.90;;;;;;;-7.11;78.99;96126.50;5116327;28;20097;-65
2024/01/12 05:31:11;;;;;;;1999.90;999.90;;;;;;;-7.10;78.97;96133.34;5116305;28;20112;-62
2024/01/12 05:33:38;;;;;;;1999.90;999.90;;;;;;;-7.19;79.64;96133.09;5116266;28;20134;-62
2024/01/12 05:36:06;;;;;;;1999.90;999.90;;;;;;;-7.12;79.69;96137.53;5116188;28;20083;-63
2024/01/12 05:38:33;;;;;;;1999.90;999.90;;;;;;;-7.08;79.66;96143.56;5116211;28;20446;-62
2024/01/12 05:41:00;;;;;;;1999.90;999.90;;;;;;;-7.00;79.58;96148.00;5116042;28;20044;-66
2024/01/12 05:43:27;;;;;;;1999.90;999.90;;;;;;;-6.99;79.92;96151.38;5116071;28;21150;-63
2024/01/12 05:45:54;;;;;;;1999.90;999.90;;;;;;;-6.98;80.05;96146.34;5116011;28;20130;-65
2024/01/12 05:48:22;;;;;;;1999.90;999.90;;;;;;;-6.89;80.34;96155.88;5115802;28;20050;-65
2024/01/12 05:50:49;;;;;;;1999.90;999.90;;;;;;;-6.77;80.52;96162.09;5115614;28;20143;-65
2024/01/12 05:53:21;;;;;;;1999.90;999.90;;;;;;;-6.68;80.69;96164.88;5115907;28;20044;-65
2024/01/12 05:55:49;;;;;;;1999.90;999.90;;;;;;;-6.65;80.76;96164.06;5115826;28;20096;-67
2024/01/12 05:58:17;;;;;;;1999.90;999.90;;;;;;;-6.64;81.44;96173.44;5115814;28;20055;-66
2024/01/12 06:00:44;;;;;;;1999.90;999.90;;;;;;;-6.60;82.33;96172.66;5115659;28;20043;-63
2024/01/12 06:03:11;;;;;;;1999.90;999.90;;;;;;;-6.57;82.49;96169.34;5115691;28;20050;-63
2024/01/12 06:05:40;;;;;;;1999.90;999.90;;;;;;;-6.37;82.80;96177.44;5115549;28;20043;-66
2024/01/12 06:08:08;;;;;;;1999.90;999.90;;;;;;;-6.26;82.69;96173.44;5114992;28;20043;-66
2024/01/12 06:10:35;;;;;;;1999.90;999.90;;;;;;;-6.10;82.84;96181.41;5115621;28;20075;-65
2024/01/12 06:13:02;;;;;;;1999.90;999.90;;;;;;;-5.98;82.61;96180.78;5115306;28;20047;-63
2024/01/12 06:15:29;;;;;;;1999.90;999.90;;;;;;;-5.80;82.63;96189.63;5115325;28;20058;-66
2024/01/12 06:17:57;;;;;;;1999.90;999.90;;;;;;;-5.63;82.22;96203.59;5115350;28;20086;-64
2024/01/12 06:20:25;;;;;;;1999.90;999.90;;;;;;;-5.47;82.59;96206.44;5115209;28;20078;-64
2024/01/12 06:22:53;;;;;;;1999.90;999.90;;;;;;;-5.26;82.98;96216.22;5115315;28;20040;-66
2024/01/12 06:25:20;;;;;;;1999.90;999.90;;;;;;;-4.78;84.05;96220.44;5115314;28;20052;-66
2024/01/12 06:27:47;;;;;;;1999.90;999.90;;;;;;;-4.09;82.36;96228.34;5115148;28;20061;-66
2024/01/12 06:30:15;;;;;;;1999.90;999.90;;;;;;;-3.79;80.07;96228.78;5115110;28;20055;-63
2024/01/12 06:32:42;;;;;;;1999.90;999.90;;;;;;;-3.69;76.56;96235.72;5115208;28;20131;-66
2024/01/12 06:35:10;;;;;;;1999.90;999.90;;;;;;;-3.58;70.68;96242.69;5115016;28;20044;-64
2024/01/12 06:37:37;;;;;;;1999.90;999.90;;;;;;;-3.45;69.27;96239.44;5114909;28;20052;-64
2024/01/12 06:40:07;;;;;;;1999.90;999.90;;;;;;;-3.30;65.59;96249.00;5114785;28;20394;-67
2024/01/12 06:42:34;;;;;;;1999.90;999.90;;;;;;;-3.12;67.71;96244.06;5114792;28;20477;-64
2024/01/12 06:45:03;;;;;;;1999.90;999.90;;;;;;;-3.06;64.69;96252.69;5114722;28;20044;-64
2024/01/12 06:47:30;;;;;;;1999.90;999.90;;;;;;;-2.92;64.18;96259.66;5114644;28;20054;-64
2024/01/12 06:49:57;;;;;;;1999.90;999.90;;;;;;;-2.81;62.56;96265.72;5114531;28;20058;-66
2024/01/12 06:52:24;;;;;;;1999.90;999.90;;;;;;;-2.69;63.31;96269.25;5114454;28;20048;-62
2024/01/12 06:54:51;;;;;;;1999.90;999.90;;;;;;;-2.60;68.08;96259.09;5114611;28;20451;-66
2024/01/12 06:57:20;;;;;;;1999.90;999.90;;;;;;;-2.58;71.11;96256.56;5114508;28;20047;-65
2024/01/12 06:59:47;;;;;;;1999.90;999.90;;;;;;;-2.58;70.69;96254.00;5114407;28;20054;-64
2024/01/12 07:02:14;;;;;;;1999.90;999.90;;;;;;;-2.56;67.61;96262.56;5114545;28;20043;-66
2024/01/12 07:04:42;;;;;;;1999.90;999.90;;;;;;;-2.49;65.72;96263.47;5114488;28;20081;-67
2024/01/12 07:07:09;;;;;;;1999.90;999.90;;;;;;;-2.41;66.04;96264.38;5114371;28;20077;-64
2024/01/12 07:09:36;;;;;;;1999.90;999.90;;;;;;;-2.29;58.25;96284.13;5114156;28;20071;-63
2024/01/12 07:12:03;;;;;;;1999.90;999.90;;;;;;;-2.16;62.38;96279.97;5114254;28;20079;-67
2024/01/12 07:14:32;;;;;;;1999.90;999.90;;;;;;;-2.04;61.73;96280.06;5114339;28;20064;-65
2024/01/12 07:16:59;;;;;;;1999.90;999.90;;;;;;;-1.89;61.22;96275.03;5114100;28;20048;-64
2024/01/12 07:19:26;;;;;;;1999.90;999.90;;;;;;;-1.71;60.04;96272.63;5113392;28;20051;-64
2024/01/12 07:21:53;;;;;;;1999.90;999.90;;;;;;;-1.40;65.06;96274.47;5113855;28;20093;-67
2024/01/12 07:24:20;;;;;;;1999.90;999.90;;;;;;;-1.11;63.22;96276.34;5114140;28;20054;-67
2024/01/12 07:26:47;;;;;;;1999.90;999.90;;;;;;;-0.80;65.08;96273.00;5114003;28;20510;-64
2024/01/12 07:29:16;;;;;;;1999.90;999.90;;;;;;;-0.51;65.57;96272.22;5113862;28;20636;-65
2024/01/12 07:31:45;;;;;;;1999.90;999.90;;;;;;;-0.25;68.01;96279.06;5114005;28;20097;-64
2024/01/12 07:34:11;;;;;;;1999.90;999.90;;;;;;;-0.14;68.66;96281.66;5113832;28;20481;-64
2024/01/12 07:36:38;;;;;;;1999.90;999.90;;;;;;;-0.03;68.91;96295.38;5113758;28;20496;-65
2024/01/12 07:39:07;;;;;;;1999.90;999.90;;;;;;;0.17;69.47;96294.50;5113846;28;20451;-64
2024/01/12 07:41:34;;;;;;;1999.90;999.90;;;;;;;0.47;61.12;96308.22;5113795;28;20100;-66
2024/01/12 07:44:01;;;;;;;1999.90;999.90;;;;;;;0.87;58.56;96312.41;5113704;28;20079;-64
2024/01/12 07:46:28;;;;;;;1999.90;999.90;;;;;;;1.43;53.40;96329.34;5113653;28;20481;-63
2024/01/12 07:48:59;;;;;;;1999.90;999.90;;;;;;;1.50;47.67;96307.81;5113658;28;20052;-64
2024/01/12 07:51:26;;;;;;;1999.90;999.90;;;;;;;1.51;48.90;96313.84;5113262;28;20054;-66
2024/01/12 07:53:53;;;;;;;1999.90;999.90;;;;;;;1.48;51.37;96319.03;5113525;28;20079;-63
2024/01/12 07:56:20;;;;;;;1999.90;999.90;;;;;;;1.47;43.64;96323.31;5113701;28;20126;-66
2024/01/12 07:58:47;;;;;;;1999.90;999.90;;;;;;;1.64;43.56;96327.50;5113532;28;20140;-63
2024/01/12 08:01:15;;;;;;;1999.90;999.90;;;;;;;1.74;43.54;96326.59;5113511;28;20061;-66
2024/01/12 08:03:44;;;;;;;1999.90;999.90;;;;;;;2.08;43.33;96320.31;5113496;28;20058;-67
2024/01/12 08:06:12;;;;;;;1999.90;999.90;;;;;;;2.45;43.67;96318.31;5113448;28;20567;-65
2024/01/12 08:08:39;;;;;;;1999.90;999.90;;;;;;;2.47;44.59;96325.16;5113495;28;20087;-63
2024/01/12 08:11:07;;;;;;;1999.90;999.90;;;;;;;2.24;41.32;96330.53;5095414;28;20043;-66
2024/01/12 08:13:34;;;;;;;1999.90;999.90;;;;;;;2.07;42.73;96328.94;5113427;28;20127;-66
2024/01/12 08:16:01;;;;;;;1999.90;999.90;;;;;;;2.05;42.64;96341.03;5113361;28;20138;-67
2024/01/12 08:18:28;;;;;;;1999.90;999.90;;;;;;;2.06;45.59;96334.97;5113357;28;20054;-63
2024/01/12 08:20:56;;;;;;;1999.90;999.90;;;;;;;1.92;42.28;96347.13;5095352;28;20052;-64
2024/01/12 08:23:25;;;;;;;1999.90;999.90;;;;;;;1.67;43.13;96349.84;5113235;28;20142;-65
2024/01/12 08:25:51;;;;;;;1999.90;999.90;;;;;;;1.57;44.25;96354.22;5113480;28;20126;-63
2024/01/12 08:28:19;;;;;;;1999.90;999.90;;;;;;;1.56;44.14;96362.81;5113432;28;20054;-67
2024/01/12 08:30:46;;;;;;;1999.90;999.90;;;;;;;1.58;44.11;96355.91;5113422;28;20087;-65
2024/01/12 08:33:13;;;;;;;1999.90;999.90;;;;;;;1.50;42.18;96366.25;5117362;28;20055;-66
2024/01/12 08:35:40;;;;;;;1999.90;999.90;;;;;;;1.71;43.42;96372.16;5117161;28;20447;-66
2024/01/12 08:38:07;;;;;;;1999.90;999.90;;;;;;;2.65;41.38;96359.47;5117215;28;20075;-64
2024/01/12 08:40:35;;;;;;;1999.90;999.90;;;;;;;4.13;38.85;96368.00;5117161;28;20090;-63
2024/01/12 08:43:03;;;;;;;1999.90;999.90;;;;;;;5.08;36.90;96372.50;5117195;28;20179;-64
2024/01/12 08:45:30;;;;;;;1999.90;999.90;;;;;;;5.88;34.76;96369.16;5117139;28;20068;-68
2024/01/12 08:47:58;;;;;;;1999.90;999.90;;;;;;;5.49;33.73;96376.03;5116872;28;20478;-65
2024/01/12 08:50:25;;;;;;;1999.90;999.90;;;;;;;5.25;35.28;96373.03;5116871;28;20048;-64
2024/01/12 08:52:53;;;;;;;1999.90;999.90;;;;;;;5.30;35.14;96376.38;5116956;28;20047;-63
2024/01/12 08:55:20;;;;;;;1999.90;999.90;;;;;;;5.15;36.83;96384.47;5117015;28;20061;-66
2024/01/12 08:57:48;;;;;;;1999.90;999.90;;;;;;;5.05;34.93;96384.63;5116747;28;21279;-63
2024/01/12 09:00:17;;;;;;;1999.90;999.90;;;;;;;4.46;35.48;96388.25;5116992;28;20040;-66
2024/01/12 09:02:44;;;;;;;1999.90;999.90;;;;;;;3.85;36.00;96393.44;5116626;28;20079;-64
2024/01/12 09:05:12;;;;;;;1999.90;999.90;;;;;;;3.51;37.64;96397.31;5116670;28;20047;-65
2024/01/12 09:07:39;;;;;;;1999.90;999.90;;;;;;;3.20;35.91;96398.53;5116602;28;20382;-64
2024/01/12 09:10:07;;;;;;;1999.90;999.90;;;;;;;2.93;37.19;96394.50;5116552;28;20146;-67
2024/01/12 09:12:34;;;;;;;1999.90;999.90;;;;;;;2.88;39.31;96392.81;5116539;28;20043;-65
2024/01/12 09:15:03;;;;;;;1999.90;999.90;;;;;;;2.86;36.58;96394.56;5116524;28;20059;-67
2024/01/12 09:17:30;;;;;;;1999.90;999.90;;;;;;;2.82;36.64;96385.13;5116564;28;20503;-64
2024/01/12 09:19:57;;;;;;;1999.90;999.90;;;;;;;2.89;38.23;96393.69;5116662;28;20131;-64
2024/01/12 09:22:24;;;;;;;1999.90;999.90;;;;;;;2.98;36.32;96396.16;5116355;28;20435;-67
2024/01/12 09:24:51;;;;;;;1999.90;999.90;;;;;;;3.08;36.71;96396.06;5116428;28;20086;-64
2024/01/12 09:27:19;;;;;;;1999.90;999.90;;;;;;;2.99;36.16;96399.59;5116370;28;20420;-62
2024/01/12 09:29:46;;;;;;;1999.90;999.90;;;;;;;3.10;36.00;96396.91;5116170;28;20043;-65
2024/01/12 09:32:15;;;;;;;1999.90;999.90;;;;;;;3.11;37.04;96396.03;5116222;28;20039;-65
2024/01/12 09:34:42;;;;;;;1999.90;999.90;;;;;;;3.23;36.54;96401.09;5116169;28;20082;-66
2024/01/12 09:37:09;;;;;;;1999.90;999.90;;;;;;;2.99;36.01;96404.78;5116186;28;20062;-67
2024/01/12 09:39:36;;;;;;;1999.90;999.90;;;;;;;3.02;36.51;96397.00;5116148;28;20088;-66
2024/01/12 09:42:06;;;;;;;1999.90;999.90;;;;;;;2.99;37.04;96397.88;5115881;28;20096;-67
2024/01/12 09:44:38;;;;;;;1999.90;999.90;;;;;;;2.77;36.85;96397.25;5115292;28;20047;-67
2024/01/12 09:47:05;;;;;;;1999.90;999.90;;;;;;;2.76;38.38;96403.25;5115838;28;20138;-65
2024/01/12 09:49:34;;;;;;;1999.90;999.90;;;;;;;2.73;37.23;96404.16;5115954;28;20079;-67
2024/01/12 09:52:03;;;;;;;1999.90;999.90;;;;;;;2.73;36.56;96406.72;5115760;28;20450;-65
2024/01/12 09:54:30;;;;;;;1999.90;999.90;;;;;;;2.72;38.18;96404.16;5115921;28;20084;-65
2024/01/12 09:56:58;;;;;;;1999.90;999.90;;;;;;;2.70;36.73;96419.69;5115786;28;20397;-65
2024/01/12 09:59:27;;;;;;;1999.90;999.90;;;;;;;2.83;38.47;96392.00;5115759;28;20127;-67
2024/01/12 10:01:54;;;;;;;1999.90;999.90;;;;;;;2.74;37.34;96403.28;5115689;28;20134;-66
2024/01/12 10:04:21;;;;;;;1999.90;999.90;;;;;;;2.58;36.62;96415.47;5115556;28;20418;-67
2024/01/12 10:06:49;;;;;;;1999.90;999.90;;;;;;;2.49;36.32;96405.19;5115559;28;20048;-64
2024/01/12 10:09:18;;;;;;;1999.90;999.90;;;;;;;2.43;36.57;96397.50;5115551;28;20040;-67
2024/01/12 10:11:45;;;;;;;1999.90;999.90;;;;;;;2.37;37.17;96408.75;5115345;28;20047;-66
2024/01/12 10:14:12;;;;;;;1999.90;999.90;;;;;;;2.42;39.02;96413.88;5115274;28;20040;-64
2024/01/12 10:16:39;;;;;;;1999.90;999.90;;;;;;;2.52;38.04;96407.75;5115363;28;20079;-64
2024/01/12 10:19:06;;;;;;;1999.90;999.90;;;;;;;2.56;37.94;96413.78;5115277;28;20079;-65
2024/01/12 10:21:40;;;;;;;1999.90;999.90;;;;;;;2.52;36.67;96405.19;5115409;28;20056;-67
2024/01/12 10:24:09;;;;;;;1999.90;999.90;;;;;;;2.36;37.39;96419.94;5115218;28;20055;-67
2024/01/12 10:26:36;;;;;;;1999.90;999.90;;;;;;;2.26;37.69;96407.09;5115185;28;20428;-67
2024/01/12 10:29:03;;;;;;;1999.90;999.90;;;;;;;2.22;37.56;96420.03;5115243;28;20047;-67
2024/01/12 10:31:31;;;;;;;1999.90;999.90;;;;;;;2.08;38.59;96427.88;5114939;28;20511;-66
2024/01/12 10:33:59;;;;;;;1999.90;999.90;;;;;;;2.02;38.88;96429.63;5115044;28;20047;-66
2024/01/12 10:36:28;;;;;;;1999.90;999.90;;;;;;;2.10;38.23;96431.28;5114862;28;20481;-66
2024/01/12 10:38:58;;;;;;;1999.90;999.90;;;;;;;2.16;38.49;96428.69;5114969;28;20048;-65
2024/01/12 10:41:28;;;;;;;1999.90;999.90;;;;;;;2.27;38.59;96418.28;5114978;28;20119;-64
2024/01/12 10:43:57;;;;;;;1999.90;999.90;;;;;;;2.33;38.91;96422.53;5114935;28;20090;-65
2024/01/12 10:46:36;;;;;;;1999.90;999.90;;;;;;;2.37;37.42;96422.50;5114714;28;20122;-66
2024/01/12 10:49:14;;;;;;;1999.90;999.90;;;;;;;2.34;38.10;96419.09;5114739;28;20048;-67
2024/01/12 10:51:53;;;;;;;1999.90;999.90;;;;;;;2.44;37.54;96428.47;5114413;28;20533;-63
2024/01/12 10:54:27;;;;;;;1999.90;999.90;;;;;;;2.53;37.70;96430.16;5114465;28;20052;-62
2024/01/12 10:56:56;;;;;;;1999.90;999.90;;;;;;;2.62;37.67;96434.41;5114576;28;20079;-66
2024/01/12 10:59:25;;;;;;;1999.90;999.90;;;;;;;2.76;38.54;96426.50;5114461;28;20040;-66